createdAt,value
2018-09-23T09:23:05.087Z,123.75
2018-09-23T09:24:05.081Z,123.75
2018-09-23T09:25:05.043Z,129.38
2018-09-23T09:26:05.011Z,146.25
2018-09-23T09:27:05.023Z,174.38
2018-09-23T09:28:04.987Z,202.50
2018-09-23T09:29:04.954Z,253.13
2018-09-23T09:30:04.959Z,331.88
2018-09-23T09:31:04.914Z,360.00
2018-09-23T09:32:04.919Z,348.75
2018-09-23T09:33:04.886Z,286.88
2018-09-23T09:34:04.858Z,247.50
2018-09-23T09:35:04.856Z,225.00
2018-09-23T09:36:04.846Z,202.50
2018-09-23T09:37:04.790Z,241.88
2018-09-23T09:38:04.788Z,258.75
2018-09-23T09:39:04.749Z,298.13
2018-09-23T09:40:04.752Z,264.38
2018-09-23T09:41:04.707Z,230.63
2018-09-23T09:42:04.699Z,196.88
2018-09-23T09:43:04.677Z,157.50
2018-09-23T09:44:04.676Z,185.63
2018-09-23T09:45:04.638Z,208.13
2018-09-23T09:46:04.625Z,196.88
2018-09-23T09:47:04.606Z,168.75
2018-09-23T09:48:04.564Z,146.25
2018-09-23T09:49:04.558Z,157.50
2018-09-23T09:50:04.544Z,157.50
2018-09-23T09:51:04.507Z,151.88
2018-09-23T09:52:04.521Z,163.13
2018-09-23T09:53:04.487Z,180.00
2018-09-23T09:54:04.454Z,140.63
2018-09-23T09:55:04.427Z,118.13
2018-09-23T09:56:04.418Z,90.00
2018-09-23T09:57:04.417Z,95.63
2018-09-23T09:58:04.403Z,112.50
2018-09-23T09:59:04.360Z,129.38
2018-09-23T10:00:04.370Z,151.88
2018-09-23T10:01:04.329Z,168.75
2018-09-23T10:02:04.328Z,163.13
2018-09-23T10:03:04.276Z,163.13
2018-09-23T10:04:04.305Z,151.88
2018-09-23T10:05:04.262Z,191.25
2018-09-23T10:06:04.230Z,241.88
2018-09-23T10:07:04.188Z,236.25
2018-09-23T10:08:04.170Z,264.38
2018-09-23T10:09:04.175Z,270.00
2018-09-23T10:10:04.134Z,258.75
2018-09-23T10:11:04.124Z,213.75
2018-09-23T10:12:04.124Z,163.13
2018-09-23T10:13:04.099Z,112.50
2018-09-23T10:14:04.059Z,95.63
2018-09-23T10:15:04.038Z,112.50
2018-09-23T10:16:04.033Z,106.88
2018-09-23T10:17:03.999Z,84.38
2018-09-23T10:18:03.975Z,84.38
2018-09-23T10:19:03.966Z,101.25
2018-09-23T10:20:03.932Z,106.88
2018-09-23T10:21:03.936Z,112.50
2018-09-23T10:22:03.891Z,123.75
2018-09-23T10:23:03.942Z,118.13
2018-09-23T10:24:03.850Z,112.50
2018-09-23T10:25:03.857Z,101.25
2018-09-23T10:26:03.814Z,101.25
2018-09-23T10:27:03.810Z,101.25
2018-09-23T10:28:03.790Z,101.25
2018-09-23T10:29:03.760Z,106.88
2018-09-23T10:30:03.737Z,101.25
2018-09-23T10:31:03.770Z,84.38
2018-09-23T10:32:03.713Z,106.88
2018-09-23T10:33:03.683Z,90.00
2018-09-23T10:34:03.668Z,95.63
2018-09-23T10:35:03.657Z,67.50
2018-09-23T10:36:03.671Z,50.63
2018-09-23T10:37:03.595Z,45.00
2018-09-23T10:38:03.570Z,50.63
2018-09-23T10:39:03.565Z,56.25
2018-09-23T10:40:03.556Z,56.25
2018-09-23T10:41:03.510Z,56.25
2018-09-23T10:42:03.539Z,67.50
2018-09-23T10:43:03.484Z,56.25
2018-09-23T10:44:03.453Z,73.13
2018-09-23T10:45:03.426Z,84.38
2018-09-23T10:46:03.431Z,95.63
2018-09-23T10:47:03.417Z,84.38
2018-09-23T10:48:03.371Z,78.75
2018-09-23T10:49:03.357Z,101.25
2018-09-23T10:50:03.325Z,73.13
2018-09-23T10:51:03.300Z,56.25
2018-09-23T10:52:03.281Z,45.00
2018-09-23T10:53:03.268Z,45.00
2018-09-23T10:54:03.245Z,45.00
2018-09-23T10:55:03.261Z,45.00
2018-09-23T10:56:03.208Z,45.00
2018-09-23T10:57:03.196Z,45.00
2018-09-23T10:58:03.159Z,50.63
2018-09-23T10:59:03.158Z,50.63
2018-09-23T11:00:03.131Z,56.25
2018-09-23T11:01:03.103Z,45.00
2018-09-23T11:02:03.107Z,45.00
2018-09-23T11:03:03.054Z,50.63
2018-09-23T11:04:03.203Z,61.88
2018-09-23T11:05:03.043Z,61.88
2018-09-23T11:06:03.006Z,73.13
2018-09-23T11:07:03.012Z,78.75
2018-09-23T11:08:02.959Z,73.13
2018-09-23T11:09:02.960Z,78.75
2018-09-23T11:10:02.940Z,95.63
2018-09-23T11:11:02.912Z,101.25
2018-09-23T11:12:02.891Z,140.63
2018-09-23T11:13:02.852Z,180.00
2018-09-23T11:14:02.827Z,163.13
2018-09-23T11:15:02.808Z,180.00
2018-09-23T11:16:02.801Z,180.00
2018-09-23T11:17:02.803Z,191.25
2018-09-23T11:18:02.750Z,230.63
2018-09-23T11:19:02.772Z,219.38
2018-09-23T11:20:02.728Z,202.50
2018-09-23T11:21:02.694Z,129.38
2018-09-23T11:22:02.667Z,90.00
2018-09-23T11:23:02.641Z,123.75
2018-09-23T11:24:02.627Z,202.50
2018-09-23T11:25:02.621Z,247.50
2018-09-23T11:26:02.577Z,303.75
2018-09-23T11:27:02.587Z,264.38
2018-09-23T11:28:02.553Z,219.38
2018-09-23T11:29:02.516Z,168.75
2018-09-23T11:30:02.516Z,185.63
2018-09-23T11:31:02.503Z,241.88
2018-09-23T11:32:02.452Z,354.38
2018-09-23T11:33:02.458Z,382.50
2018-09-23T11:34:02.445Z,320.63
2018-09-23T11:35:02.427Z,343.13
2018-09-23T11:36:02.367Z,315.00
2018-09-23T11:37:02.381Z,241.88
2018-09-23T11:38:02.329Z,219.38
2018-09-23T11:39:02.312Z,163.13
2018-09-23T11:40:02.347Z,180.00
2018-09-23T11:41:02.301Z,135.00
2018-09-23T11:42:02.263Z,112.50
2018-09-23T11:43:02.282Z,112.50
2018-09-23T11:44:02.260Z,118.13
2018-09-23T11:45:02.198Z,123.75
2018-09-23T11:46:02.192Z,185.63
2018-09-23T11:47:02.178Z,202.50
2018-09-23T11:48:02.141Z,219.38
2018-09-23T11:49:02.101Z,151.88
2018-09-23T11:50:02.103Z,146.25
2018-09-23T11:51:02.059Z,157.50
2018-09-23T11:52:02.057Z,168.75
2018-09-23T11:53:02.025Z,140.63
2018-09-23T11:54:02.069Z,112.50
2018-09-23T11:55:02.009Z,101.25
2018-09-23T11:56:01.966Z,118.13
2018-09-23T11:57:01.931Z,78.75
2018-09-23T11:58:01.915Z,61.88
2018-09-23T11:59:01.957Z,56.25
2018-09-23T12:00:01.886Z,45.00
2018-09-23T12:01:01.855Z,45.00
2018-09-23T12:02:01.867Z,50.63
2018-09-23T12:03:01.840Z,67.50
2018-09-23T12:04:01.814Z,67.50
2018-09-23T12:05:01.820Z,67.50
2018-09-23T12:06:01.783Z,101.25
2018-09-23T12:07:01.761Z,101.25
2018-09-23T12:09:24.885Z,129.38
2018-09-23T12:10:24.832Z,151.88
2018-09-23T12:11:24.744Z,168.75
2018-09-23T12:12:24.759Z,157.50
2018-09-23T12:13:24.708Z,163.13
2018-09-23T12:14:24.728Z,123.75
2018-09-23T12:15:24.661Z,84.38
2018-09-23T12:16:24.635Z,73.13
2018-09-23T12:18:47.796Z,118.13
2018-09-23T12:21:10.805Z,56.25
2018-09-23T12:22:10.701Z,56.25
2018-09-23T12:23:10.721Z,78.75
2018-09-23T12:25:33.913Z,78.75
2018-09-23T12:27:56.952Z,95.63
2018-09-23T12:30:20.032Z,101.25
2018-09-23T12:32:43.227Z,33.75
2018-09-23T12:35:05.986Z,45.00
2018-09-23T12:37:29.128Z,50.63
2018-09-23T12:38:28.855Z,73.13
2018-09-23T12:40:51.912Z,84.38
2018-09-23T12:43:15.250Z,95.63
2018-09-23T12:45:38.487Z,90.00
2018-09-23T12:48:01.025Z,168.75
2018-09-23T12:50:24.549Z,213.75
2018-09-23T12:51:24.091Z,151.88
2018-09-23T12:53:47.087Z,196.88
2018-09-23T12:56:10.055Z,112.50
2018-09-23T12:58:43.125Z,84.38
2018-09-23T13:01:06.190Z,90.00
2018-09-23T13:03:20.139Z,106.88
2018-09-23T13:04:28.226Z,129.38
2018-09-23T13:06:13.913Z,123.75
2018-09-23T13:08:36.825Z,180.00
2018-09-23T13:11:00.638Z,247.50
2018-09-23T13:12:09.631Z,225.00
2018-09-23T13:13:55.308Z,168.75
2018-09-23T13:14:55.386Z,123.75
2018-09-23T13:15:55.049Z,106.88
2018-09-23T13:16:55.296Z,84.38
2018-09-23T13:19:17.754Z,90.00
2018-09-23T13:20:17.283Z,67.50
2018-09-23T13:21:17.283Z,73.13
2018-09-23T13:23:40.227Z,101.25
2018-09-23T13:26:03.508Z,140.63
2018-09-23T13:28:26.483Z,123.75
2018-09-23T13:29:26.506Z,106.88
2018-09-23T13:31:49.395Z,112.50
2018-09-23T13:32:58.717Z,168.75
